Aviation Digital Data Service (ADDS)

Output produced by METARs form (1205 UTC 24 February 2018)
found at http://www.aviationweather.gov/adds/metars/
 
TAF KVBG 232301Z 2323/2505 32015G25KT 9999 FEW020 FEW050 520006 QNH3023INS 
     BECMG 2409/2410 33010G15KT 9999 FEW050 QNH3024INS 
     BECMG 2412/2413 02009KT 9999 SKC QNH3025INS 
     BECMG 2418/2419 33010G15KT 9999 SKC QNH3028INS 
     BECMG 2421/2422 32012G20KT 9999 SKC QNH3026INS 
     BECMG 2500/2501 30010G15KT 9999 SKC QNH3025INS 
     BECMG 2504/2505 33009KT 9999 SKC QNH3028INS TX12/2323Z TN04/2413Z LAST NO AMDS AFT 2401 NEXT 2615
       
KVCT 241144Z 2412/2512 17011KT 6SM BR BKN018 OVC025 
     FM241700 18020G25KT P6SM BKN022 
     FM242000 19020G25KT P6SM SCT022 
     FM250200 34004KT 6SM BR VCSH OVC015 
     PROB30 2503/2506 4SM -TSRA BR BKN015CB 
     FM250600 03007KT 5SM BR VCTS OVC020CB
       
KVEL 241140Z 2412/2512 30005KT P6SM SCT040 
     TEMPO 2412/2415 BKN035 
     FM241800 18005KT P6SM SCT040 BKN070 
     FM250200 28004KT P6SM SCT035 BKN060
       
KVGT 241120Z 2412/2512 36008KT P6SM SKC 
     FM241400 VRB05KT P6SM SKC 
     FM242000 15007KT P6SM SKC 
     FM250300 33011KT P6SM SKC
       
KVIS 241120Z 2412/2512 VRB04KT P6SM SKC 
     FM242300 31008KT P6SM SCT080
       
KVLD 241120Z 2412/2512 VRB03KT 5SM BR SCT030 
     FM241500 18007KT P6SM SCT050 
     FM250700 18003KT 6SM BR SCT020
       
KVNY 241125Z 2412/2512 01010KT P6SM SKC 
     FM242200 36012G22KT P6SM SKC 
     FM250200 36010KT P6SM SKC
       
TAF KVPS 241000Z 2410/2516 14005KT 4800 BR FEW002 BKN007 QNH3014INS 
     BECMG 2411/2412 15005KT 3200 BR SCT002 BKN006 QNH3012INS 
     TEMPO 2412/2414 0800 FG BKN002 
     BECMG 2414/2415 15012KT 9999 NSW BKN012 BKN030 QNH3010INS 
     BECMG 2418/2419 17010KT 9999 FEW015 BKN040 QNH3005INS 
     BECMG 2504/2505 18005KT 4800 BR BKN005 BKN015 QNH3003INS 
     BECMG 2513/2514 18007KT 9999 VCSH SCT005 BKN015 QNH3000INS TX24/2420Z TN19/2411Z FCST BY USAF WX MET TECH
       
KVQQ 241120Z 2412/2512 00000KT 1/4SM FG VV002 
     FM241330 16003KT 3SM BR BKN010 
     FM241500 17006KT P6SM SCT020 
     FM241900 15011KT P6SM BKN040 
     FM250200 15005KT P6SM SCT040 BKN080
       
KVRB 241125Z 2412/2512 12008KT P6SM SCT025 SCT060 
     FM241500 12012KT P6SM SCT035 
     FM250000 13007KT P6SM FEW040
       
KVTN 241130Z 2412/2512 VRB03KT P6SM VCSH SCT005 BKN010 OVC060 
     FM241800 20006KT P6SM SCT015 BKN050 
     FM242000 28009KT P6SM SKC